sensor_id;sensor_type;location;lat;lon;timestamp;pressure;altitude;pressure_sealevel;temperature;humidity
13934;BME280;7039;52.168;9.866;2023-06-05T00:00:20;101240.47;;;15.12;64.02
13934;BME280;7039;52.168;9.866;2023-06-05T00:02:47;101237.06;;;15.10;64.55
13934;BME280;7039;52.168;9.866;2023-06-05T00:05:13;101240.06;;;15.03;64.91
13934;BME280;7039;52.168;9.866;2023-06-05T00:07:41;101245.47;;;15.00;64.08
13934;BME280;7039;52.168;9.866;2023-06-05T00:10:09;101246.50;;;14.98;65.13
13934;BME280;7039;52.168;9.866;2023-06-05T00:12:36;101240.41;;;14.97;64.82
13934;BME280;7039;52.168;9.866;2023-06-05T00:15:04;101232.97;;;14.74;66.00
13934;BME280;7039;52.168;9.866;2023-06-05T00:17:30;101245.16;;;14.75;65.78
13934;BME280;7039;52.168;9.866;2023-06-05T00:19:57;101240.84;;;14.58;66.51
13934;BME280;7039;52.168;9.866;2023-06-05T00:22:25;101242.31;;;14.46;67.03
13934;BME280;7039;52.168;9.866;2023-06-05T00:24:52;101240.19;;;14.37;67.34
13934;BME280;7039;52.168;9.866;2023-06-05T00:27:20;101242.91;;;14.35;67.18
13934;BME280;7039;52.168;9.866;2023-06-05T00:29:46;101231.25;;;14.24;67.81
13934;BME280;7039;52.168;9.866;2023-06-05T00:32:13;101232.69;;;14.13;68.15
13934;BME280;7039;52.168;9.866;2023-06-05T00:34:39;101231.84;;;14.13;68.03
13934;BME280;7039;52.168;9.866;2023-06-05T00:37:06;101235.16;;;14.16;68.08
13934;BME280;7039;52.168;9.866;2023-06-05T00:39:33;101231.59;;;14.17;68.05
13934;BME280;7039;52.168;9.866;2023-06-05T00:41:59;101231.69;;;14.16;67.83
13934;BME280;7039;52.168;9.866;2023-06-05T00:44:27;101237.00;;;14.14;67.99
13934;BME280;7039;52.168;9.866;2023-06-05T00:46:53;101233.41;;;13.99;68.59
13934;BME280;7039;52.168;9.866;2023-06-05T00:49:20;101233.78;;;13.92;69.05
13934;BME280;7039;52.168;9.866;2023-06-05T00:51:47;101230.03;;;13.80;69.30
13934;BME280;7039;52.168;9.866;2023-06-05T00:54:13;101228.78;;;13.87;69.10
13934;BME280;7039;52.168;9.866;2023-06-05T00:56:40;101230.13;;;13.78;69.27
13934;BME280;7039;52.168;9.866;2023-06-05T00:59:07;101236.13;;;13.81;69.41
13934;BME280;7039;52.168;9.866;2023-06-05T01:01:35;101231.06;;;13.77;69.67
13934;BME280;7039;52.168;9.866;2023-06-05T01:04:03;101226.88;;;13.73;70.11
13934;BME280;7039;52.168;9.866;2023-06-05T01:06:30;101236.00;;;13.84;69.84
13934;BME280;7039;52.168;9.866;2023-06-05T01:08:59;101230.13;;;13.78;69.26
13934;BME280;7039;52.168;9.866;2023-06-05T01:11:33;101231.09;;;13.93;68.79
13934;BME280;7039;52.168;9.866;2023-06-05T01:14:10;101232.72;;;13.96;68.76
13934;BME280;7039;52.168;9.866;2023-06-05T01:16:45;101229.81;;;13.85;69.05
13934;BME280;7039;52.168;9.866;2023-06-05T01:19:14;101230.81;;;13.82;69.13
13934;BME280;7039;52.168;9.866;2023-06-05T01:21:41;101233.19;;;13.69;69.53
13934;BME280;7039;52.168;9.866;2023-06-05T01:24:08;101239.22;;;13.71;69.43
13934;BME280;7039;52.168;9.866;2023-06-05T01:26:49;101234.06;;;13.70;69.71
13934;BME280;7039;52.168;9.866;2023-06-05T01:29:28;101224.59;;;13.50;70.27
13934;BME280;7039;52.168;9.866;2023-06-05T01:32:02;101227.28;;;13.48;70.84
13934;BME280;7039;52.168;9.866;2023-06-05T01:34:32;101232.06;;;13.57;70.03
13934;BME280;7039;52.168;9.866;2023-06-05T01:36:59;101231.38;;;13.54;69.88
13934;BME280;7039;52.168;9.866;2023-06-05T01:39:28;101220.47;;;13.27;71.17
13934;BME280;7039;52.168;9.866;2023-06-05T01:41:54;101224.09;;;13.24;71.06
13934;BME280;7039;52.168;9.866;2023-06-05T01:44:21;101234.22;;;13.32;70.76
13934;BME280;7039;52.168;9.866;2023-06-05T01:46:49;101224.34;;;13.37;70.87
13934;BME280;7039;52.168;9.866;2023-06-05T01:49:15;101226.13;;;13.36;70.34
13934;BME280;7039;52.168;9.866;2023-06-05T01:51:42;101222.19;;;13.28;70.64
13934;BME280;7039;52.168;9.866;2023-06-05T01:54:08;101227.91;;;13.36;70.21
13934;BME280;7039;52.168;9.866;2023-06-05T01:56:36;101226.91;;;13.39;69.97
13934;BME280;7039;52.168;9.866;2023-06-05T01:59:03;101218.25;;;13.36;69.86
13934;BME280;7039;52.168;9.866;2023-06-05T02:01:32;101225.28;;;13.36;69.91
13934;BME280;7039;52.168;9.866;2023-06-05T02:04:00;101220.47;;;13.27;69.64
13934;BME280;7039;52.168;9.866;2023-06-05T02:06:31;101224.50;;;13.34;69.15
13934;BME280;7039;52.168;9.866;2023-06-05T02:09:01;101219.50;;;13.29;69.33
13934;BME280;7039;52.168;9.866;2023-06-05T02:11:27;101217.72;;;13.30;69.07
13934;BME280;7039;52.168;9.866;2023-06-05T02:13:55;101215.53;;;13.21;68.93
13934;BME280;7039;52.168;9.866;2023-06-05T02:16:22;101210.13;;;13.06;69.19
13934;BME280;7039;52.168;9.866;2023-06-05T02:18:51;101205.22;;;12.99;69.53
13934;BME280;7039;52.168;9.866;2023-06-05T02:21:17;101211.03;;;13.05;69.11
13934;BME280;7039;52.168;9.866;2023-06-05T02:23:44;101211.75;;;13.09;68.91
13934;BME280;7039;52.168;9.866;2023-06-05T02:26:10;101211.78;;;12.90;69.76
13934;BME280;7039;52.168;9.866;2023-06-05T02:28:37;101202.16;;;12.90;69.35
13934;BME280;7039;52.168;9.866;2023-06-05T02:31:05;101209.41;;;13.03;68.92
13934;BME280;7039;52.168;9.866;2023-06-05T02:33:31;101208.94;;;12.94;69.12
13934;BME280;7039;52.168;9.866;2023-06-05T02:35:57;101207.06;;;12.79;69.12
13934;BME280;7039;52.168;9.866;2023-06-05T02:38:24;101209.50;;;12.82;69.37
13934;BME280;7039;52.168;9.866;2023-06-05T02:40:52;101201.59;;;12.65;70.19
13934;BME280;7039;52.168;9.866;2023-06-05T02:43:18;101203.16;;;12.69;70.27
13934;BME280;7039;52.168;9.866;2023-06-05T02:45:45;101204.66;;;12.74;69.76
13934;BME280;7039;52.168;9.866;2023-06-05T02:48:13;101218.53;;;12.77;69.34
13934;BME280;7039;52.168;9.866;2023-06-05T02:50:39;101216.69;;;12.79;69.55
13934;BME280;7039;52.168;9.866;2023-06-05T02:53:06;101210.56;;;12.78;69.34
13934;BME280;7039;52.168;9.866;2023-06-05T02:55:32;101205.88;;;12.67;69.43
13934;BME280;7039;52.168;9.866;2023-06-05T02:57:59;101209.66;;;12.60;69.55
13934;BME280;7039;52.168;9.866;2023-06-05T03:00:25;101198.03;;;12.29;71.26
13934;BME280;7039;52.168;9.866;2023-06-05T03:02:52;101200.78;;;12.26;71.71
13934;BME280;7039;52.168;9.866;2023-06-05T03:05:22;101204.44;;;12.41;71.00
13934;BME280;7039;52.168;9.866;2023-06-05T03:07:50;101201.63;;;12.46;70.68
13934;BME280;7039;52.168;9.866;2023-06-05T03:10:19;101213.81;;;12.47;70.16
13934;BME280;7039;52.168;9.866;2023-06-05T03:12:45;101204.88;;;12.51;69.92
13934;BME280;7039;52.168;9.866;2023-06-05T03:15:12;101211.75;;;12.53;69.86
13934;BME280;7039;52.168;9.866;2023-06-05T03:17:39;101203.97;;;12.52;69.92
13934;BME280;7039;52.168;9.866;2023-06-05T03:20:06;101193.16;;;12.41;70.41
13934;BME280;7039;52.168;9.866;2023-06-05T03:22:35;101200.34;;;12.54;70.33
13934;BME280;7039;52.168;9.866;2023-06-05T03:25:02;101198.22;;;12.44;70.44
13934;BME280;7039;52.168;9.866;2023-06-05T03:27:29;101187.50;;;12.31;71.13
13934;BME280;7039;52.168;9.866;2023-06-05T03:29:55;101191.59;;;12.37;70.71
13934;BME280;7039;52.168;9.866;2023-06-05T03:32:23;101194.47;;;12.30;71.27
13934;BME280;7039;52.168;9.866;2023-06-05T03:34:50;101197.22;;;12.46;70.58
13934;BME280;7039;52.168;9.866;2023-06-05T03:37:16;101196.75;;;12.57;70.05
13934;BME280;7039;52.168;9.866;2023-06-05T03:39:44;101207.16;;;12.59;69.88
13934;BME280;7039;52.168;9.866;2023-06-05T03:42:10;101202.19;;;12.52;69.97
13934;BME280;7039;52.168;9.866;2023-06-05T03:44:37;101190.44;;;12.61;70.14
13934;BME280;7039;52.168;9.866;2023-06-05T03:47:04;101200.84;;;12.63;70.56
13934;BME280;7039;52.168;9.866;2023-06-05T03:49:30;101202.69;;;12.61;70.11
13934;BME280;7039;52.168;9.866;2023-06-05T03:51:57;101195.13;;;12.54;70.37
13934;BME280;7039;52.168;9.866;2023-06-05T03:54:26;101202.53;;;12.64;70.23
13934;BME280;7039;52.168;9.866;2023-06-05T03:56:54;101199.56;;;12.52;70.81
13934;BME280;7039;52.168;9.866;2023-06-05T03:59:21;101205.31;;;12.61;70.42
13934;BME280;7039;52.168;9.866;2023-06-05T04:01:49;101207.19;;;12.76;70.26
13934;BME280;7039;52.168;9.866;2023-06-05T04:04:16;101199.28;;;12.59;71.37
13934;BME280;7039;52.168;9.866;2023-06-05T04:06:43;101198.09;;;12.47;72.01
13934;BME280;7039;52.168;9.866;2023-06-05T04:09:09;101200.56;;;12.50;72.41
13934;BME280;7039;52.168;9.866;2023-06-05T04:11:39;101201.69;;;12.44;73.03
13934;BME280;7039;52.168;9.866;2023-06-05T04:14:07;101204.03;;;12.50;72.71
13934;BME280;7039;52.168;9.866;2023-06-05T04:16:34;101201.41;;;12.50;72.94
13934;BME280;7039;52.168;9.866;2023-06-05T04:19:04;101207.41;;;12.52;72.83
13934;BME280;7039;52.168;9.866;2023-06-05T04:21:31;101198.09;;;12.47;73.58
13934;BME280;7039;52.168;9.866;2023-06-05T04:23:58;101205.53;;;12.56;72.76
13934;BME280;7039;52.168;9.866;2023-06-05T04:26:24;101203.38;;;12.64;73.21
13934;BME280;7039;52.168;9.866;2023-06-05T04:28:51;101213.56;;;12.70;72.48
13934;BME280;7039;52.168;9.866;2023-06-05T04:31:19;101209.06;;;12.91;71.64
13934;BME280;7039;52.168;9.866;2023-06-05T04:33:45;101204.69;;;12.92;72.94
13934;BME280;7039;52.168;9.866;2023-06-05T04:36:13;101202.16;;;12.90;73.61
13934;BME280;7039;52.168;9.866;2023-06-05T04:38:39;101204.06;;;12.87;72.52
13934;BME280;7039;52.168;9.866;2023-06-05T04:41:06;101205.22;;;12.99;73.07
13934;BME280;7039;52.168;9.866;2023-06-05T04:43:32;101207.88;;;13.16;72.62
13934;BME280;7039;52.168;9.866;2023-06-05T04:45:59;101214.09;;;13.32;70.92
13934;BME280;7039;52.168;9.866;2023-06-05T04:48:29;101205.31;;;13.51;70.94
13934;BME280;7039;52.168;9.866;2023-06-05T04:50:56;101205.84;;;13.57;70.26
13934;BME280;7039;52.168;9.866;2023-06-05T04:53:22;101204.53;;;13.66;70.15
13934;BME280;7039;52.168;9.866;2023-06-05T04:55:49;101204.91;;;13.76;69.64
13934;BME280;7039;52.168;9.866;2023-06-05T04:58:15;101205.25;;;13.70;70.55
13934;BME280;7039;52.168;9.866;2023-06-05T05:00:42;101193.97;;;13.68;71.54
13934;BME280;7039;52.168;9.866;2023-06-05T05:03:09;101197.78;;;13.45;73.62
13934;BME280;7039;52.168;9.866;2023-06-05T05:05:39;101200.00;;;13.52;70.68
13934;BME280;7039;52.168;9.866;2023-06-05T05:08:06;101201.00;;;13.67;70.66
13934;BME280;7039;52.168;9.866;2023-06-05T05:10:32;101197.28;;;13.71;69.92
13934;BME280;7039;52.168;9.866;2023-06-05T05:12:59;101191.25;;;13.69;72.39
13934;BME280;7039;52.168;9.866;2023-06-05T05:15:26;101197.50;;;13.67;72.08
13934;BME280;7039;52.168;9.866;2023-06-05T05:17:54;101195.88;;;13.82;72.25
13934;BME280;7039;52.168;9.866;2023-06-05T05:20:21;101192.53;;;13.95;71.41
13934;BME280;7039;52.168;9.866;2023-06-05T05:22:49;101194.06;;;13.99;71.79
13934;BME280;7039;52.168;9.866;2023-06-05T05:25:15;101200.38;;;14.13;70.80
13934;BME280;7039;52.168;9.866;2023-06-05T05:27:42;101191.31;;;14.18;70.24
13934;BME280;7039;52.168;9.866;2023-06-05T05:30:09;101197.06;;;14.09;71.85
13934;BME280;7039;52.168;9.866;2023-06-05T05:32:36;101205.44;;;14.16;71.97
13934;BME280;7039;52.168;9.866;2023-06-05T05:35:03;101209.25;;;14.10;71.40
13934;BME280;7039;52.168;9.866;2023-06-05T05:37:29;101206.22;;;14.18;70.88
13934;BME280;7039;52.168;9.866;2023-06-05T05:39:57;101203.09;;;14.27;70.61
13934;BME280;7039;52.168;9.866;2023-06-05T05:42:24;101197.69;;;14.46;70.51
13934;BME280;7039;52.168;9.866;2023-06-05T05:44:50;101195.75;;;14.50;70.12
13934;BME280;7039;52.168;9.866;2023-06-05T05:47:17;101200.16;;;14.49;70.99
13934;BME280;7039;52.168;9.866;2023-06-05T05:49:43;101199.91;;;14.54;69.98
13934;BME280;7039;52.168;9.866;2023-06-05T05:52:09;101192.09;;;14.36;72.44
13934;BME280;7039;52.168;9.866;2023-06-05T05:54:36;101199.06;;;14.69;71.00
13934;BME280;7039;52.168;9.866;2023-06-05T05:57:04;101197.38;;;14.84;70.53
13934;BME280;7039;52.168;9.866;2023-06-05T05:59:31;101198.59;;;14.78;70.37
13934;BME280;7039;52.168;9.866;2023-06-05T06:01:58;101205.78;;;14.75;71.98
13934;BME280;7039;52.168;9.866;2023-06-05T06:04:26;101207.31;;;14.79;70.75
13934;BME280;7039;52.168;9.866;2023-06-05T06:06:52;101207.03;;;14.83;71.25
13934;BME280;7039;52.168;9.866;2023-06-05T06:09:21;101203.97;;;14.91;70.86
13934;BME280;7039;52.168;9.866;2023-06-05T06:11:48;101208.97;;;14.96;70.38
13934;BME280;7039;52.168;9.866;2023-06-05T06:14:16;101212.13;;;14.87;70.29
13934;BME280;7039;52.168;9.866;2023-06-05T06:16:42;101197.44;;;14.82;72.08
13934;BME280;7039;52.168;9.866;2023-06-05T06:19:09;101211.03;;;14.75;72.35
13934;BME280;7039;52.168;9.866;2023-06-05T06:21:39;101209.38;;;15.04;71.56
13934;BME280;7039;52.168;9.866;2023-06-05T06:24:06;101211.25;;;15.02;73.05
13934;BME280;7039;52.168;9.866;2023-06-05T06:26:32;101206.00;;;15.02;70.76
13934;BME280;7039;52.168;9.866;2023-06-05T06:28:59;101216.97;;;15.24;72.96
13934;BME280;7039;52.168;9.866;2023-06-05T06:31:27;101213.13;;;15.30;72.15
13934;BME280;7039;52.168;9.866;2023-06-05T06:33:53;101212.00;;;15.20;71.00
13934;BME280;7039;52.168;9.866;2023-06-05T06:36:20;101201.56;;;15.18;72.20
13934;BME280;7039;52.168;9.866;2023-06-05T06:38:47;101212.44;;;15.42;72.58
13934;BME280;7039;52.168;9.866;2023-06-05T06:41:14;101205.25;;;15.30;73.41
13934;BME280;7039;52.168;9.866;2023-06-05T06:43:40;101213.28;;;15.43;70.66
13934;BME280;7039;52.168;9.866;2023-06-05T06:46:06;101208.50;;;15.50;70.85
13934;BME280;7039;52.168;9.866;2023-06-05T06:48:34;101214.28;;;15.71;70.15
13934;BME280;7039;52.168;9.866;2023-06-05T06:51:01;101216.00;;;15.72;71.34
13934;BME280;7039;52.168;9.866;2023-06-05T06:53:29;101217.81;;;16.00;68.82
13934;BME280;7039;52.168;9.866;2023-06-05T06:55:55;101220.53;;;16.27;68.01
13934;BME280;7039;52.168;9.866;2023-06-05T06:58:22;101219.28;;;16.47;68.02
13934;BME280;7039;52.168;9.866;2023-06-05T07:00:49;101213.91;;;16.48;66.50
13934;BME280;7039;52.168;9.866;2023-06-05T07:03:16;101210.69;;;16.58;67.13
13934;BME280;7039;52.168;9.866;2023-06-05T07:05:44;101212.09;;;16.63;67.89
13934;BME280;7039;52.168;9.866;2023-06-05T07:08:10;101216.53;;;16.63;67.84
13934;BME280;7039;52.168;9.866;2023-06-05T07:10:37;101207.69;;;16.64;67.37
13934;BME280;7039;52.168;9.866;2023-06-05T07:13:03;101214.44;;;16.68;66.85
13934;BME280;7039;52.168;9.866;2023-06-05T07:15:29;101206.72;;;16.38;67.14
13934;BME280;7039;52.168;9.866;2023-06-05T07:17:56;101210.31;;;16.64;66.94
13934;BME280;7039;52.168;9.866;2023-06-05T07:20:22;101210.19;;;16.94;65.85
13934;BME280;7039;52.168;9.866;2023-06-05T07:22:50;101206.69;;;16.94;65.85
13934;BME280;7039;52.168;9.866;2023-06-05T07:25:17;101205.97;;;17.04;65.68
13934;BME280;7039;52.168;9.866;2023-06-05T07:27:46;101212.00;;;16.79;67.33
13934;BME280;7039;52.168;9.866;2023-06-05T07:30:12;101204.28;;;16.76;67.34
13934;BME280;7039;52.168;9.866;2023-06-05T08:37:49;101173.84;;;19.94;60.72
13934;BME280;7039;52.168;9.866;2023-06-05T08:43:55;101166.22;;;20.35;59.26
13934;BME280;7039;52.168;9.866;2023-06-05T08:46:26;101164.50;;;20.56;59.73
13934;BME280;7039;52.168;9.866;2023-06-05T08:48:56;101154.53;;;20.37;58.82
13934;BME280;7039;52.168;9.866;2023-06-05T08:54:34;101146.66;;;20.91;59.10
13934;BME280;7039;52.168;9.866;2023-06-05T08:57:03;101149.88;;;21.26;57.40
13934;BME280;7039;52.168;9.866;2023-06-05T08:59:31;101155.50;;;21.54;55.49
13934;BME280;7039;52.168;9.866;2023-06-05T09:01:58;101145.28;;;21.28;56.21
13934;BME280;7039;52.168;9.866;2023-06-05T09:04:25;101141.19;;;21.66;55.13
13934;BME280;7039;52.168;9.866;2023-06-05T09:06:56;101150.53;;;21.92;54.65
13934;BME280;7039;52.168;9.866;2023-06-05T09:09:23;101141.97;;;21.88;52.35
13934;BME280;7039;52.168;9.866;2023-06-05T09:12:01;101153.22;;;22.11;51.09
13934;BME280;7039;52.168;9.866;2023-06-05T09:14:28;101151.34;;;22.23;51.74
13934;BME280;7039;52.168;9.866;2023-06-05T09:16:56;101140.75;;;22.02;51.97
13934;BME280;7039;52.168;9.866;2023-06-05T09:19:23;101137.53;;;22.39;53.14
13934;BME280;7039;52.168;9.866;2023-06-05T09:21:53;101136.28;;;22.02;51.48
13934;BME280;7039;52.168;9.866;2023-06-05T09:24:22;101140.06;;;22.50;50.51
13934;BME280;7039;52.168;9.866;2023-06-05T09:26:57;101138.25;;;22.80;50.08
13934;BME280;7039;52.168;9.866;2023-06-05T09:29:25;101139.78;;;22.82;50.92
13934;BME280;7039;52.168;9.866;2023-06-05T09:31:53;101138.81;;;22.83;50.36
13934;BME280;7039;52.168;9.866;2023-06-05T09:34:21;101138.41;;;22.88;49.70
13934;BME280;7039;52.168;9.866;2023-06-05T09:36:48;101134.66;;;23.10;50.41
13934;BME280;7039;52.168;9.866;2023-06-05T09:39:15;101129.59;;;23.07;47.02
13934;BME280;7039;52.168;9.866;2023-06-05T09:41:44;101139.59;;;23.52;48.73
13934;BME280;7039;52.168;9.866;2023-06-05T09:44:10;101133.63;;;23.30;48.72
13934;BME280;7039;52.168;9.866;2023-06-05T09:46:49;101130.16;;;23.67;47.49
13934;BME280;7039;52.168;9.866;2023-06-05T09:49:16;101131.09;;;23.86;47.40
13934;BME280;7039;52.168;9.866;2023-06-05T09:51:43;101128.47;;;23.76;48.46
13934;BME280;7039;52.168;9.866;2023-06-05T09:54:11;101129.22;;;23.96;48.12
13934;BME280;7039;52.168;9.866;2023-06-05T09:56:39;101130.59;;;24.00;49.06
13934;BME280;7039;52.168;9.866;2023-06-05T09:59:08;101117.91;;;24.12;48.70
13934;BME280;7039;52.168;9.866;2023-06-05T10:01:35;101124.81;;;24.32;49.99
13934;BME280;7039;52.168;9.866;2023-06-05T10:04:05;101124.88;;;24.41;48.73
13934;BME280;7039;52.168;9.866;2023-06-05T10:06:33;101124.69;;;24.24;46.63
13934;BME280;7039;52.168;9.866;2023-06-05T10:09:00;101120.38;;;23.95;45.70
13934;BME280;7039;52.168;9.866;2023-06-05T10:11:28;101108.22;;;24.11;46.35
13934;BME280;7039;52.168;9.866;2023-06-05T10:13:56;101115.81;;;24.33;44.86
13934;BME280;7039;52.168;9.866;2023-06-05T10:16:26;101105.50;;;24.38;45.02
13934;BME280;7039;52.168;9.866;2023-06-05T10:18:54;101106.88;;;24.25;41.96
13934;BME280;7039;52.168;9.866;2023-06-05T10:21:22;101105.50;;;24.38;41.92
13934;BME280;7039;52.168;9.866;2023-06-05T10:23:50;101094.75;;;24.58;41.79
13934;BME280;7039;52.168;9.866;2023-06-05T10:26:30;101092.22;;;24.56;41.06
13934;BME280;7039;52.168;9.866;2023-06-05T10:29:15;101091.56;;;24.98;41.79
13934;BME280;7039;52.168;9.866;2023-06-05T10:31:52;101086.75;;;25.02;39.82
13934;BME280;7039;52.168;9.866;2023-06-05T10:34:28;101089.00;;;25.15;39.66
13934;BME280;7039;52.168;9.866;2023-06-05T10:37:18;101086.19;;;25.42;39.72
13934;BME280;7039;52.168;9.866;2023-06-05T10:39:53;101080.28;;;25.65;41.40
13934;BME280;7039;52.168;9.866;2023-06-05T10:42:24;101087.91;;;25.52;36.90
13934;BME280;7039;52.168;9.866;2023-06-05T10:44:51;101082.44;;;25.61;38.75
13934;BME280;7039;52.168;9.866;2023-06-05T10:47:54;101083.97;;;25.98;39.09
13934;BME280;7039;52.168;9.866;2023-06-05T10:50:27;101082.19;;;26.23;39.29
13934;BME280;7039;52.168;9.866;2023-06-05T10:52:56;101076.31;;;26.12;38.62
13934;BME280;7039;52.168;9.866;2023-06-05T10:55:25;101081.47;;;26.13;38.83
13934;BME280;7039;52.168;9.866;2023-06-05T10:58:13;101076.28;;;26.03;37.80
13934;BME280;7039;52.168;9.866;2023-06-05T11:03:56;101063.63;;;25.79;37.32
13934;BME280;7039;52.168;9.866;2023-06-05T11:06:23;101068.06;;;25.97;38.45
13934;BME280;7039;52.168;9.866;2023-06-05T11:09:06;101058.63;;;26.52;36.20
13934;BME280;7039;52.168;9.866;2023-06-05T11:11:58;101058.59;;;26.27;37.01
13934;BME280;7039;52.168;9.866;2023-06-05T11:14:25;101054.44;;;26.16;36.51
13934;BME280;7039;52.168;9.866;2023-06-05T11:17:26;101054.94;;;26.28;34.48
13934;BME280;7039;52.168;9.866;2023-06-05T11:19:54;101056.16;;;26.66;33.75
13934;BME280;7039;52.168;9.866;2023-06-05T11:22:20;101057.63;;;27.02;34.03
13934;BME280;7039;52.168;9.866;2023-06-05T11:25:23;101051.88;;;27.38;32.99
13934;BME280;7039;52.168;9.866;2023-06-05T11:27:52;101057.13;;;27.62;35.50
13934;BME280;7039;52.168;9.866;2023-06-05T11:30:20;101053.94;;;27.67;33.00
13934;BME280;7039;52.168;9.866;2023-06-05T11:32:48;101049.88;;;28.10;33.93
13934;BME280;7039;52.168;9.866;2023-06-05T11:35:20;101044.97;;;27.83;32.88
13934;BME280;7039;52.168;9.866;2023-06-05T11:37:46;101037.78;;;27.75;32.66
13934;BME280;7039;52.168;9.866;2023-06-05T11:40:24;101041.53;;;28.05;33.83
13934;BME280;7039;52.168;9.866;2023-06-05T11:42:50;101040.59;;;27.90;32.55
13934;BME280;7039;52.168;9.866;2023-06-05T11:45:17;101046.69;;;28.07;32.30
13934;BME280;7039;52.168;9.866;2023-06-05T11:47:43;101038.69;;;28.53;32.27
13934;BME280;7039;52.168;9.866;2023-06-05T11:50:11;101038.69;;;28.68;31.55
13934;BME280;7039;52.168;9.866;2023-06-05T11:52:39;101041.06;;;28.86;33.45
13934;BME280;7039;52.168;9.866;2023-06-05T11:55:12;101033.38;;;28.98;32.47
13934;BME280;7039;52.168;9.866;2023-06-05T11:57:41;101039.13;;;28.94;32.31
13934;BME280;7039;52.168;9.866;2023-06-05T12:00:09;101043.00;;;29.07;32.46
13934;BME280;7039;52.168;9.866;2023-06-05T12:02:36;101046.47;;;29.01;33.02
13934;BME280;7039;52.168;9.866;2023-06-05T12:05:05;101033.19;;;28.84;32.09
13934;BME280;7039;52.168;9.866;2023-06-05T12:07:33;101038.47;;;28.92;32.04
13934;BME280;7039;52.168;9.866;2023-06-05T12:10:03;101027.34;;;28.81;32.30
13934;BME280;7039;52.168;9.866;2023-06-05T12:12:30;101028.81;;;29.21;33.46
13934;BME280;7039;52.168;9.866;2023-06-05T12:15:13;101024.72;;;29.10;31.32
13934;BME280;7039;52.168;9.866;2023-06-05T12:17:39;101031.03;;;29.32;30.77
13934;BME280;7039;52.168;9.866;2023-06-05T12:20:06;101027.03;;;29.94;32.11
13934;BME280;7039;52.168;9.866;2023-06-05T12:22:34;101020.66;;;29.81;30.45
13934;BME280;7039;52.168;9.866;2023-06-05T12:25:15;101022.34;;;30.25;32.64
13934;BME280;7039;52.168;9.866;2023-06-05T12:27:42;101014.53;;;30.08;29.57
13934;BME280;7039;52.168;9.866;2023-06-05T12:30:11;101026.16;;;30.30;30.76
13934;BME280;7039;52.168;9.866;2023-06-05T12:32:38;101014.69;;;30.71;31.38
13934;BME280;7039;52.168;9.866;2023-06-05T12:35:17;101021.28;;;30.19;30.64
13934;BME280;7039;52.168;9.866;2023-06-05T12:37:44;101016.34;;;30.44;28.94
13934;BME280;7039;52.168;9.866;2023-06-05T12:40:13;101013.91;;;30.49;28.60
13934;BME280;7039;52.168;9.866;2023-06-05T12:42:41;101010.72;;;30.39;30.81
13934;BME280;7039;52.168;9.866;2023-06-05T12:45:09;101008.25;;;30.23;28.88
13934;BME280;7039;52.168;9.866;2023-06-05T12:47:37;101010.44;;;31.12;29.83
13934;BME280;7039;52.168;9.866;2023-06-05T12:50:04;101001.38;;;31.81;29.37
13934;BME280;7039;52.168;9.866;2023-06-05T12:52:32;101012.47;;;32.19;28.22
13934;BME280;7039;52.168;9.866;2023-06-05T12:55:00;101000.63;;;32.07;28.29
13934;BME280;7039;52.168;9.866;2023-06-05T12:57:28;101003.91;;;31.96;29.08
13934;BME280;7039;52.168;9.866;2023-06-05T12:59:56;101002.09;;;32.03;27.80
13934;BME280;7039;52.168;9.866;2023-06-05T13:02:22;101007.91;;;32.27;27.84
13934;BME280;7039;52.168;9.866;2023-06-05T13:04:49;100989.00;;;32.33;27.91
13934;BME280;7039;52.168;9.866;2023-06-05T13:07:16;100993.25;;;33.27;27.17
13934;BME280;7039;52.168;9.866;2023-06-05T13:09:43;100986.31;;;32.73;26.69
13934;BME280;7039;52.168;9.866;2023-06-05T13:12:09;100987.47;;;31.71;27.33
13934;BME280;7039;52.168;9.866;2023-06-05T13:14:36;100987.28;;;32.92;28.19
13934;BME280;7039;52.168;9.866;2023-06-05T13:17:04;100986.69;;;34.25;26.90
13934;BME280;7039;52.168;9.866;2023-06-05T13:19:30;100989.06;;;35.02;25.80
13934;BME280;7039;52.168;9.866;2023-06-05T13:21:57;100978.63;;;35.54;25.38
13934;BME280;7039;52.168;9.866;2023-06-05T13:24:23;100981.47;;;36.67;25.21
13934;BME280;7039;52.168;9.866;2023-06-05T13:26:50;100982.75;;;37.40;23.67
13934;BME280;7039;52.168;9.866;2023-06-05T13:29:16;100972.44;;;37.88;23.79
13934;BME280;7039;52.168;9.866;2023-06-05T13:31:43;100961.22;;;36.87;23.06
13934;BME280;7039;52.168;9.866;2023-06-05T13:34:10;100963.06;;;35.92;24.73
13934;BME280;7039;52.168;9.866;2023-06-05T13:36:37;100953.22;;;36.45;23.17
13934;BME280;7039;52.168;9.866;2023-06-05T13:39:04;100962.25;;;37.50;23.74
13934;BME280;7039;52.168;9.866;2023-06-05T13:41:30;100959.50;;;37.78;22.90
13934;BME280;7039;52.168;9.866;2023-06-05T13:43:57;100948.84;;;37.19;23.71
13934;BME280;7039;52.168;9.866;2023-06-05T13:46:23;100950.25;;;36.82;22.09
13934;BME280;7039;52.168;9.866;2023-06-05T13:48:50;100947.84;;;36.97;24.18
13934;BME280;7039;52.168;9.866;2023-06-05T13:51:18;100949.72;;;36.96;22.97
13934;BME280;7039;52.168;9.866;2023-06-05T13:53:45;100949.53;;;36.74;23.90
13934;BME280;7039;52.168;9.866;2023-06-05T13:56:12;100950.03;;;38.32;23.26
13934;BME280;7039;52.168;9.866;2023-06-05T13:58:38;100950.75;;;38.83;23.22
13934;BME280;7039;52.168;9.866;2023-06-05T14:01:05;100945.69;;;39.14;23.04
13934;BME280;7039;52.168;9.866;2023-06-05T14:03:32;100947.03;;;39.11;21.34
13934;BME280;7039;52.168;9.866;2023-06-05T14:05:58;100939.50;;;39.23;22.13
13934;BME280;7039;52.168;9.866;2023-06-05T14:08:26;100934.84;;;39.78;21.37
13934;BME280;7039;52.168;9.866;2023-06-05T14:10:53;100937.09;;;40.19;22.10
13934;BME280;7039;52.168;9.866;2023-06-05T14:13:20;100941.88;;;40.81;20.94
13934;BME280;7039;52.168;9.866;2023-06-05T14:15:46;100935.19;;;41.35;20.80
13934;BME280;7039;52.168;9.866;2023-06-05T14:18:13;100934.59;;;40.55;19.60
13934;BME280;7039;52.168;9.866;2023-06-05T14:20:39;100925.97;;;39.07;21.55